• Join FlightAware (Why Join?)
  • Login
  • US Flag 
09:50PM EDT


 

Airport Tracker/Info


-or-


 

Live Flight TrackerFlight Track Log ✈ EJA996 ✈ 07-Jul-2013 ✈ KFRG - TXKF / BDA

Flight Track Log - Related Links

Times and Time Zones

All times are in EDT time to prevent confusion due to time zone crossing. See the EJA996 flight status page for this flight to view local times or setup timezone preferences in your user account.

Time Position Orientation Groundspeed Altitude Reporting Facility
EDT Latitude Longitude Course Direction KTS MPH feet Rate Location/Type
01:08PM 40.7000 -73.3833 201° Southwest 200 230 1,700  Level New York TRACON
01:09PM 40.6333 -73.4167 201° Southwest 225 259 4,300 2,040 Climbing New York TRACON
01:11PM 40.4983 -73.4347 186° South 281 323 8,000 1,920 Climbing New York Center
01:12PM 40.4269 -73.3694 145° Southeast 276 318 10,200 1,680 Climbing New York Center
01:13PM 40.3600 -73.2822 135° Southeast 308 354 11,500 1,680 Climbing New York Center
01:14PM 40.2892 -73.1819 133° Southeast 361 415 13,700 1,920 Climbing New York Center
01:15PM 40.2242 -73.0953 134° Southeast 371 427 15,400 1,740 Climbing New York Center
01:16PM 40.1492 -72.9922 134° Southeast 379 436 17,200 1,620 Climbing New York Center
01:17PM 40.0719 -72.8922 135° Southeast 385 443 18,700 1,440 Climbing New York Center
01:18PM 39.9947 -72.7842 133° Southeast 390 449 20,200 1,380 Climbing New York Center
01:19PM 39.9172 -72.6764 133° Southeast 402 463 21,500 1,260 Climbing New York Center
01:20PM 39.8336 -72.5686 135° Southeast 407 468 22,700 1,200 Climbing New York Center
01:21PM 39.7497 -72.4531 133° Southeast 415 478 24,000 1,320 Climbing New York Center
01:22PM 39.6639 -72.3431 135° Southeast 427 491 25,400 1,320 Climbing New York Center
01:23PM 39.5778 -72.2253 133° Southeast 432 497 26,700 1,200 Climbing New York Center
01:24PM 39.4917 -72.1106 134° Southeast 439 505 27,900 1,080 Climbing New York Center
01:25PM 39.4033 -71.9958 135° Southeast 444 511 28,900 540 Climbing New York Center
01:26PM 39.3086 -71.8733 135° Southeast 452 520 29,000  Climbing New York Center
01:27PM 39.2139 -71.7433 133° Southeast 476 548 29,000  Level New York Center
01:28PM 39.1150 -71.6133 134° Southeast 493 567 29,000  Level New York Center
01:29PM 39.0136 -71.4758 133° Southeast 510 587 29,000  Level New York Center
01:30PM 38.9103 -71.3442 135° Southeast 515 593 29,000  Level New York Center
01:31PM 38.8064 -71.2181 137° Southeast 515 593 29,000  Level New York Center
01:32PM 38.7069 -71.0842 134° Southeast 515 593 29,000  Level New York Center
01:33PM 38.6031 -70.9456 134° Southeast 520 598 29,000  Level New York Center
01:34PM 38.4989 -70.8206 137° Southeast 515 593 29,000  Level New York Center
01:35PM 38.3947 -70.6933 136° Southeast 515 593 29,000  Level New York Center
01:36PM 38.2944 -70.5556 133° Southeast 515 593 29,000  Level New York Center
01:37PM 38.1919 -70.4239 135° Southeast 515 593 29,000  Level New York Center
01:38PM 38.1333 -70.3667 159° South 505 581 29,000  Level New York Oceanic (ODAPS)
01:38PM 38.0667 -70.3294 159° South 515 593 29,000  Level New York Center
01:39PM 37.9286 -70.2772 163° South 510 587 29,000  Level New York Center
01:41PM 37.7776 -70.1984 158° South  Level FlightAware Approximate
01:48PM 36.9812 -69.8282 160° South  Level FlightAware Approximate
01:49PM 36.8662 -69.7754 160° South  Level FlightAware Approximate
01:50PM 36.7513 -69.7227 160° South  Level FlightAware Approximate
01:51PM 36.6362 -69.6702 160° South  Level FlightAware Approximate
01:52PM 36.5212 -69.6178 160° South  Level FlightAware Approximate
01:52PM 36.1667 -69.4500 143° Southeast 537 618 29,000  Level New York Oceanic (ODAPS)
01:53PM 36.4061 -69.5656 160° South  Level FlightAware Approximate
01:54PM 36.2910 -69.5136 160° South  Level FlightAware Approximate
01:55PM 36.1759 -69.4617 160° South  Level FlightAware Approximate
01:56PM 36.0749 -69.3783 142° Southeast  Level FlightAware Approximate
01:57PM 35.9778 -69.2859 142° Southeast  Level FlightAware Approximate
01:58PM 35.8807 -69.1937 142° Southeast  Level FlightAware Approximate
01:59PM 35.3329 -68.6700 143° Southeast 537 618 29,000  Level FlightAware Transoceanic
02:00PM 35.2134 -68.5599 143° Southeast 537 618 29,000  Level FlightAware Transoceanic
02:01PM 35.0938 -68.4501 143° Southeast 537 618 29,000  Level FlightAware Transoceanic
02:02PM 34.9740 -68.3407 143° Southeast 537 618 29,000  Level FlightAware Transoceanic
02:03PM 34.8542 -68.2316 143° Southeast 537 618 29,000  Level FlightAware Transoceanic
02:04PM 34.7343 -68.1227 143° Southeast 537 618 29,000  Level FlightAware Transoceanic
02:05PM 34.6143 -68.0142 143° Southeast 537 618 29,000  Level FlightAware Transoceanic
02:06PM 34.4942 -67.9061 143° Southeast 537 618 29,000  Level FlightAware Transoceanic
02:07PM 34.3740 -67.7982 144° Southeast 537 618 29,000  Level FlightAware Transoceanic
02:08PM 34.2537 -67.6906 144° Southeast 537 618 29,000  Level FlightAware Transoceanic
02:09PM 34.1551 -67.6027 144° Southeast  Level FlightAware Approximate
02:10PM 34.0565 -67.5151 144° Southeast  Level FlightAware Approximate
02:11PM 34.0989 -67.5156 140° Southeast  Level FlightAware Approximate
02:12PM 34.0258 -67.3979 124° Southeast  Level FlightAware Approximate
02:13PM 33.9569 -67.2758 124° Southeast  Level FlightAware Approximate
02:14PM 33.8878 -67.1539 124° Southeast  Level FlightAware Approximate
02:15PM 33.8167 -67.0338 126° Southeast  Level FlightAware Approximate
02:16PM 33.7447 -66.9147 126° Southeast  Level FlightAware Approximate
02:17PM 33.6725 -66.7957 126° Southeast  Level FlightAware Approximate
02:18PM 33.6002 -66.6769 126° Southeast  Level FlightAware Approximate
02:19PM 33.5278 -66.5584 126° Southeast  Level FlightAware Approximate
02:20PM 33.4553 -66.4400 126° Southeast  Level FlightAware Approximate
02:21PM 33.3830 -66.3216 126° Southeast  Level FlightAware Approximate
02:21PM 34.1333 -67.5833 125° Southeast 499 574 29,000  Level New York Oceanic (ODAPS)
02:21PM 34.1333 -67.5833 125° Southeast 499 574 20,000 -5,460 Descending New York Oceanic (ODAPS)
02:22PM 33.3116 -66.2024 126° Southeast  Level FlightAware Approximate
02:23PM 33.2397 -66.0840 127° Southeast  Level FlightAware Approximate
02:23PM 34.1333 -67.5833 125° Southeast 499 574 15,500  Level New York Oceanic (ODAPS)
02:24PM 33.1653 -65.9680 127° Southeast  Level FlightAware Approximate
02:25PM 33.0910 -65.8520 126° Southeast  Level FlightAware Approximate
02:25PM 34.1333 -67.5833 125° Southeast 499 574 12,200  Level New York Oceanic (ODAPS)
02:26PM 33.0188 -65.7343 126° Southeast  Level FlightAware Approximate
02:27PM 32.7937 -65.3634 126° Southeast 499 574 20,000  Level FlightAware Transoceanic
02:28PM 32.7182 -65.2421 127° Southeast 499 574 20,000 -8,880 Level FlightAware Transoceanic
02:28PM 34.1333 -67.5833 125° Southeast 499 574 8,500  Descending New York Oceanic (ODAPS)
02:29PM 32.6425 -65.1209 127° Southeast 499 574 20,000 4,080 Climbing FlightAware Transoceanic
02:30PM 32.5667 -65.0000 106° East 499 574 15,500 -8,580 Descending FlightAware Transoceanic
02:30PM 34.1333 -67.5833 125° Southeast 499 574 4,000  Descending New York Oceanic (ODAPS)
02:31PM 32.5402 -64.8899 106° East 499 574 15,500  Climbing FlightAware Transoceanic
02:31PM 34.1333 -67.5833 125° Southeast 499 574 4,000 -3,300 Descending New York Oceanic (ODAPS)
02:32PM 32.5136 -64.7798 106° East 499 574 12,200 7,200 Climbing FlightAware Transoceanic
02:33PM 32.4869 -64.6698 106° East 499 574 12,200 -8,040 Level FlightAware Transoceanic
02:33PM 32.5667 -65.0000 106° East 248 285 3,000 -3,720 Descending New York Oceanic (ODAPS)
02:34PM 32.4602 -64.5599 106° East 499 574 8,500  Climbing FlightAware Transoceanic
02:35PM 32.3756 -64.6645 121° Southeast  Level Estimated
02:36PM 32.3640 -64.6787 90° East  Level Estimated
02:37PM 33.7541 -66.9278 126° Southeast  Level FlightAware Approximate
02:38PM 33.7541 -66.9278 126° Southeast  Level FlightAware Approximate
02:39PM 32.4333 -64.4500 196° South 248 285 3,000  Level FlightAware Transoceanic
02:40PM 32.3966 -64.5714 123° Southeast  Level Estimated
02:41PM 32.3640 -64.6787 132° Southeast  Level Estimated
02:42PM 32.3640 -64.6787 132° Southeast  Level Estimated
02:43PM 32.3640 -64.6787 90° East  Level Estimated
02:44PM 32.3640 -64.6787 90° East  Level Estimated
02:45PM 32.3640 -64.6787 90° East  Level Estimated
02:46PM 32.3640 -64.6787 90° East  Level Estimated
02:47PM 32.3640 -64.6787 90° East  Level Estimated